Terminal Aerodrome Forecast
Issued by NWS

Home | Current Version | Previous Version | Text Only | Print | Product List | Glossary Off
Versions: 1 2 3 4 5 6 7 8 9 10 11 12 13 14 15 16 17 18 19 20

000
FTUS41 KCLE 080800 AAB
TAFFDY
TAF AMD
KFDY 080848Z 0809/0906 21008KT 5SM BR SCT006 OVC015
     FM081400 23014G22KT P6SM VCTS SCT025 OVC035CB
     FM081700 25015G25KT P6SM BKN035
     FM082200 27008KT P6SM VCTS SCT025 OVC040CB
     FM090100 28006KT P6SM FEW100 SCT250=

USA.gov is the U.S. government's official web portal to all federal, state and local government web resources and services.